Circle Pines, Minnesota
Current Conditions -  °F | °C
As of 9:55 AM on Thursday 29 Jan 2015 (Local Time) from KANE Reporting Station
Overcast Overcast  
Wind Chill: 20°   Ceiling: 2200
Heat Index: 32°   Visibility: 10mi
Dew Point: 25°   Wind: 18mph
Humidity: 75%   Direction: 320°NW
Pressure: 30.19"   Gusts: 28mph
Location:  45.15°N, 93.15°W
Report Text: KANE 291555Z 32016G24KT 10SM OVC022 00/M04 A3019
Loading
Personal Weather Stations






























Interactive Weather Map New forecast layout! Learn more

10-Day Weather Forecast

Advertisements
Track Severe Weather on mobile